sensor_id;sensor_type;location;lat;lon;timestamp;P1;durP1;ratioP1;P2;durP2;ratioP2
1296;SDS011;641;48.492;9.184;2022-11-20T00:01:07;6.07;;;2.00;;
1296;SDS011;641;48.492;9.184;2022-11-20T00:03:34;7.03;;;1.93;;
1296;SDS011;641;48.492;9.184;2022-11-20T00:06:04;6.00;;;1.40;;
1296;SDS011;641;48.492;9.184;2022-11-20T00:08:32;6.83;;;1.90;;
1296;SDS011;641;48.492;9.184;2022-11-20T00:11:01;5.90;;;1.60;;
1296;SDS011;641;48.492;9.184;2022-11-20T00:13:31;7.80;;;2.20;;
1296;SDS011;641;48.492;9.184;2022-11-20T00:15:57;7.90;;;2.37;;
1296;SDS011;641;48.492;9.184;2022-11-20T00:18:24;7.50;;;2.40;;
1296;SDS011;641;48.492;9.184;2022-11-20T00:20:50;7.33;;;2.47;;
1296;SDS011;641;48.492;9.184;2022-11-20T00:23:15;7.07;;;2.40;;
1296;SDS011;641;48.492;9.184;2022-11-20T00:25:41;6.57;;;1.97;;
1296;SDS011;641;48.492;9.184;2022-11-20T00:28:06;7.07;;;2.37;;
1296;SDS011;641;48.492;9.184;2022-11-20T00:30:32;8.10;;;2.30;;
1296;SDS011;641;48.492;9.184;2022-11-20T00:32:57;7.37;;;2.43;;
1296;SDS011;641;48.492;9.184;2022-11-20T00:35:23;9.30;;;2.57;;
1296;SDS011;641;48.492;9.184;2022-11-20T00:37:49;8.73;;;2.67;;
1296;SDS011;641;48.492;9.184;2022-11-20T00:40:15;6.70;;;2.30;;
1296;SDS011;641;48.492;9.184;2022-11-20T00:42:40;8.50;;;2.80;;
1296;SDS011;641;48.492;9.184;2022-11-20T00:45:06;9.03;;;2.90;;
1296;SDS011;641;48.492;9.184;2022-11-20T00:47:32;8.20;;;3.00;;
1296;SDS011;641;48.492;9.184;2022-11-20T00:49:57;10.20;;;3.03;;
1296;SDS011;641;48.492;9.184;2022-11-20T00:52:23;8.10;;;2.60;;
1296;SDS011;641;48.492;9.184;2022-11-20T00:54:48;7.33;;;2.57;;
1296;SDS011;641;48.492;9.184;2022-11-20T00:57:14;8.40;;;2.97;;
1296;SDS011;641;48.492;9.184;2022-11-20T00:59:39;8.37;;;3.07;;
1296;SDS011;641;48.492;9.184;2022-11-20T01:02:05;8.50;;;2.97;;
1296;SDS011;641;48.492;9.184;2022-11-20T01:04:30;9.43;;;2.60;;
1296;SDS011;641;48.492;9.184;2022-11-20T01:06:56;7.77;;;2.80;;
1296;SDS011;641;48.492;9.184;2022-11-20T01:09:22;10.60;;;3.40;;
1296;SDS011;641;48.492;9.184;2022-11-20T01:11:47;12.53;;;4.27;;
1296;SDS011;641;48.492;9.184;2022-11-20T01:14:15;9.83;;;3.07;;
1296;SDS011;641;48.492;9.184;2022-11-20T01:16:43;7.87;;;2.60;;
1296;SDS011;641;48.492;9.184;2022-11-20T01:19:12;7.93;;;2.67;;
1296;SDS011;641;48.492;9.184;2022-11-20T01:21:40;10.13;;;3.03;;
1296;SDS011;641;48.492;9.184;2022-11-20T01:24:08;9.60;;;3.40;;
1296;SDS011;641;48.492;9.184;2022-11-20T01:26:37;7.93;;;3.30;;
1296;SDS011;641;48.492;9.184;2022-11-20T01:29:04;8.53;;;2.77;;
1296;SDS011;641;48.492;9.184;2022-11-20T01:31:34;7.60;;;2.70;;
1296;SDS011;641;48.492;9.184;2022-11-20T01:34:04;9.47;;;3.40;;
1296;SDS011;641;48.492;9.184;2022-11-20T01:36:32;9.77;;;2.50;;
1296;SDS011;641;48.492;9.184;2022-11-20T01:38:59;8.07;;;3.13;;
1296;SDS011;641;48.492;9.184;2022-11-20T01:41:28;8.53;;;2.90;;
1296;SDS011;641;48.492;9.184;2022-11-20T01:44:15;8.10;;;3.20;;
1296;SDS011;641;48.492;9.184;2022-11-20T01:46:45;8.83;;;3.27;;
1296;SDS011;641;48.492;9.184;2022-11-20T01:49:40;8.60;;;3.30;;
1296;SDS011;641;48.492;9.184;2022-11-20T01:52:14;9.90;;;3.17;;
1296;SDS011;641;48.492;9.184;2022-11-20T01:54:47;9.70;;;3.20;;
1296;SDS011;641;48.492;9.184;2022-11-20T01:57:18;7.93;;;2.97;;
1296;SDS011;641;48.492;9.184;2022-11-20T01:59:47;7.83;;;2.97;;
1296;SDS011;641;48.492;9.184;2022-11-20T02:02:20;9.50;;;3.50;;
1296;SDS011;641;48.492;9.184;2022-11-20T02:04:46;8.47;;;3.20;;
1296;SDS011;641;48.492;9.184;2022-11-20T02:07:14;7.50;;;2.67;;
1296;SDS011;641;48.492;9.184;2022-11-20T02:09:40;10.97;;;3.00;;
1296;SDS011;641;48.492;9.184;2022-11-20T02:12:06;7.10;;;2.30;;
1296;SDS011;641;48.492;9.184;2022-11-20T02:14:51;8.97;;;2.63;;
1296;SDS011;641;48.492;9.184;2022-11-20T02:17:17;7.27;;;2.37;;
1296;SDS011;641;48.492;9.184;2022-11-20T02:19:43;6.83;;;2.10;;
1296;SDS011;641;48.492;9.184;2022-11-20T02:22:10;7.50;;;2.07;;
1296;SDS011;641;48.492;9.184;2022-11-20T02:24:53;8.23;;;2.23;;
1296;SDS011;641;48.492;9.184;2022-11-20T02:27:19;6.87;;;2.20;;
1296;SDS011;641;48.492;9.184;2022-11-20T02:29:53;7.60;;;2.37;;
1296;SDS011;641;48.492;9.184;2022-11-20T02:32:24;8.47;;;2.43;;
1296;SDS011;641;48.492;9.184;2022-11-20T02:34:51;7.10;;;1.83;;
1296;SDS011;641;48.492;9.184;2022-11-20T02:37:17;7.07;;;2.03;;
1296;SDS011;641;48.492;9.184;2022-11-20T02:39:45;7.23;;;1.77;;
1296;SDS011;641;48.492;9.184;2022-11-20T02:42:12;6.37;;;1.97;;
1296;SDS011;641;48.492;9.184;2022-11-20T02:44:38;8.03;;;2.13;;
1296;SDS011;641;48.492;9.184;2022-11-20T02:47:03;9.40;;;2.10;;
1296;SDS011;641;48.492;9.184;2022-11-20T02:49:29;7.20;;;1.80;;
1296;SDS011;641;48.492;9.184;2022-11-20T02:51:54;6.73;;;1.30;;
1296;SDS011;641;48.492;9.184;2022-11-20T02:54:20;9.37;;;2.50;;
1296;SDS011;641;48.492;9.184;2022-11-20T02:56:46;6.73;;;2.33;;
1296;SDS011;641;48.492;9.184;2022-11-20T02:59:11;6.87;;;2.00;;
1296;SDS011;641;48.492;9.184;2022-11-20T03:01:37;10.13;;;2.23;;
1296;SDS011;641;48.492;9.184;2022-11-20T03:04:02;8.60;;;1.90;;
1296;SDS011;641;48.492;9.184;2022-11-20T03:06:28;7.40;;;1.63;;
1296;SDS011;641;48.492;9.184;2022-11-20T03:08:54;6.90;;;1.63;;
1296;SDS011;641;48.492;9.184;2022-11-20T03:11:19;8.10;;;1.83;;
1296;SDS011;641;48.492;9.184;2022-11-20T03:13:45;6.97;;;1.87;;
1296;SDS011;641;48.492;9.184;2022-11-20T03:16:18;6.80;;;2.03;;
1296;SDS011;641;48.492;9.184;2022-11-20T03:18:45;6.87;;;1.50;;
1296;SDS011;641;48.492;9.184;2022-11-20T03:21:11;7.40;;;1.73;;
1296;SDS011;641;48.492;9.184;2022-11-20T03:23:38;8.13;;;1.90;;
1296;SDS011;641;48.492;9.184;2022-11-20T03:28:50;6.10;;;1.50;;
1296;SDS011;641;48.492;9.184;2022-11-20T03:31:23;7.07;;;1.70;;
1296;SDS011;641;48.492;9.184;2022-11-20T03:33:50;6.70;;;1.77;;
1296;SDS011;641;48.492;9.184;2022-11-20T03:36:17;6.50;;;1.83;;
1296;SDS011;641;48.492;9.184;2022-11-20T03:38:44;6.10;;;1.50;;
1296;SDS011;641;48.492;9.184;2022-11-20T03:41:11;6.40;;;1.43;;
1296;SDS011;641;48.492;9.184;2022-11-20T03:43:38;7.40;;;1.80;;
1296;SDS011;641;48.492;9.184;2022-11-20T03:46:04;6.13;;;1.40;;
1296;SDS011;641;48.492;9.184;2022-11-20T03:48:31;6.43;;;1.63;;
1296;SDS011;641;48.492;9.184;2022-11-20T03:54:00;7.47;;;1.83;;
1296;SDS011;641;48.492;9.184;2022-11-20T03:56:31;6.87;;;1.43;;
1296;SDS011;641;48.492;9.184;2022-11-20T03:58:58;7.23;;;1.67;;
1296;SDS011;641;48.492;9.184;2022-11-20T04:01:29;6.03;;;1.50;;
1296;SDS011;641;48.492;9.184;2022-11-20T04:03:56;6.10;;;1.20;;
1296;SDS011;641;48.492;9.184;2022-11-20T04:06:25;5.90;;;1.33;;
1296;SDS011;641;48.492;9.184;2022-11-20T04:08:53;6.60;;;1.63;;
1296;SDS011;641;48.492;9.184;2022-11-20T04:11:21;6.63;;;1.57;;
1296;SDS011;641;48.492;9.184;2022-11-20T04:13:50;6.03;;;1.33;;
1296;SDS011;641;48.492;9.184;2022-11-20T04:16:17;6.83;;;1.40;;
1296;SDS011;641;48.492;9.184;2022-11-20T04:18:43;6.00;;;1.20;;
1296;SDS011;641;48.492;9.184;2022-11-20T04:21:10;6.47;;;1.57;;
1296;SDS011;641;48.492;9.184;2022-11-20T04:23:36;7.70;;;1.50;;
1296;SDS011;641;48.492;9.184;2022-11-20T04:26:06;6.30;;;1.60;;
1296;SDS011;641;48.492;9.184;2022-11-20T04:28:36;6.03;;;1.50;;
1296;SDS011;641;48.492;9.184;2022-11-20T04:31:06;7.97;;;1.33;;
1296;SDS011;641;48.492;9.184;2022-11-20T04:33:37;6.47;;;1.60;;
1296;SDS011;641;48.492;9.184;2022-11-20T04:36:03;6.30;;;1.60;;
1296;SDS011;641;48.492;9.184;2022-11-20T04:38:31;5.87;;;1.47;;
1296;SDS011;641;48.492;9.184;2022-11-20T04:40:57;5.77;;;1.30;;
1296;SDS011;641;48.492;9.184;2022-11-20T04:43:26;6.60;;;1.60;;
1296;SDS011;641;48.492;9.184;2022-11-20T04:45:53;6.23;;;1.40;;
1296;SDS011;641;48.492;9.184;2022-11-20T04:48:19;6.80;;;1.50;;
1296;SDS011;641;48.492;9.184;2022-11-20T04:50:45;6.30;;;1.50;;
1296;SDS011;641;48.492;9.184;2022-11-20T04:53:11;6.30;;;1.30;;
1296;SDS011;641;48.492;9.184;2022-11-20T04:55:36;5.70;;;1.30;;
1296;SDS011;641;48.492;9.184;2022-11-20T04:58:02;5.50;;;0.97;;
1296;SDS011;641;48.492;9.184;2022-11-20T05:00:27;6.57;;;1.10;;
1296;SDS011;641;48.492;9.184;2022-11-20T05:02:53;7.30;;;1.63;;
1296;SDS011;641;48.492;9.184;2022-11-20T05:05:19;5.90;;;1.40;;
1296;SDS011;641;48.492;9.184;2022-11-20T05:07:45;5.90;;;1.10;;
1296;SDS011;641;48.492;9.184;2022-11-20T05:10:10;7.83;;;1.10;;
1296;SDS011;641;48.492;9.184;2022-11-20T05:12:36;7.50;;;1.30;;
1296;SDS011;641;48.492;9.184;2022-11-20T05:15:02;5.40;;;1.20;;
1296;SDS011;641;48.492;9.184;2022-11-20T05:17:27;6.27;;;1.40;;
1296;SDS011;641;48.492;9.184;2022-11-20T05:19:53;6.30;;;1.40;;
1296;SDS011;641;48.492;9.184;2022-11-20T05:22:19;6.50;;;1.60;;
1296;SDS011;641;48.492;9.184;2022-11-20T05:24:44;5.90;;;1.43;;
1296;SDS011;641;48.492;9.184;2022-11-20T05:27:10;5.80;;;1.40;;
1296;SDS011;641;48.492;9.184;2022-11-20T05:29:35;6.20;;;1.67;;
1296;SDS011;641;48.492;9.184;2022-11-20T05:32:01;6.60;;;1.10;;
1296;SDS011;641;48.492;9.184;2022-11-20T05:34:26;6.33;;;1.33;;
1296;SDS011;641;48.492;9.184;2022-11-20T05:36:52;7.17;;;1.23;;
1296;SDS011;641;48.492;9.184;2022-11-20T05:39:17;6.13;;;1.57;;
1296;SDS011;641;48.492;9.184;2022-11-20T05:41:43;5.93;;;1.40;;
1296;SDS011;641;48.492;9.184;2022-11-20T05:44:12;8.13;;;1.40;;
1296;SDS011;641;48.492;9.184;2022-11-20T05:46:37;7.80;;;1.30;;
1296;SDS011;641;48.492;9.184;2022-11-20T05:49:03;6.20;;;1.50;;
1296;SDS011;641;48.492;9.184;2022-11-20T05:51:28;6.80;;;1.37;;
1296;SDS011;641;48.492;9.184;2022-11-20T05:53:56;6.40;;;1.30;;
1296;SDS011;641;48.492;9.184;2022-11-20T05:56:22;6.10;;;1.47;;
1296;SDS011;641;48.492;9.184;2022-11-20T05:58:48;13.40;;;2.30;;
1296;SDS011;641;48.492;9.184;2022-11-20T06:03:45;7.63;;;1.50;;
1296;SDS011;641;48.492;9.184;2022-11-20T06:06:12;7.77;;;1.83;;
1296;SDS011;641;48.492;9.184;2022-11-20T06:08:39;6.00;;;1.20;;
1296;SDS011;641;48.492;9.184;2022-11-20T06:11:06;6.30;;;1.33;;
1296;SDS011;641;48.492;9.184;2022-11-20T06:13:33;6.80;;;1.50;;
1296;SDS011;641;48.492;9.184;2022-11-20T06:15:58;6.37;;;1.73;;
1296;SDS011;641;48.492;9.184;2022-11-20T06:18:25;6.40;;;1.27;;
1296;SDS011;641;48.492;9.184;2022-11-20T06:20:58;8.27;;;1.50;;
1296;SDS011;641;48.492;9.184;2022-11-20T06:23:32;8.60;;;1.60;;
1296;SDS011;641;48.492;9.184;2022-11-20T06:26:01;5.67;;;1.20;;
1296;SDS011;641;48.492;9.184;2022-11-20T06:28:37;6.63;;;1.20;;
1296;SDS011;641;48.492;9.184;2022-11-20T06:31:03;6.33;;;1.53;;
1296;SDS011;641;48.492;9.184;2022-11-20T06:33:30;6.30;;;1.60;;
1296;SDS011;641;48.492;9.184;2022-11-20T06:35:56;6.67;;;1.60;;
1296;SDS011;641;48.492;9.184;2022-11-20T06:38:23;6.07;;;1.30;;
1296;SDS011;641;48.492;9.184;2022-11-20T06:40:49;5.87;;;1.47;;
1296;SDS011;641;48.492;9.184;2022-11-20T06:43:15;5.67;;;1.20;;
1296;SDS011;641;48.492;9.184;2022-11-20T06:45:41;8.00;;;1.40;;
1296;SDS011;641;48.492;9.184;2022-11-20T06:48:07;7.30;;;1.40;;
1296;SDS011;641;48.492;9.184;2022-11-20T06:50:33;6.77;;;1.47;;
1296;SDS011;641;48.492;9.184;2022-11-20T06:53:02;5.70;;;1.17;;
1296;SDS011;641;48.492;9.184;2022-11-20T06:55:29;6.67;;;1.33;;
1296;SDS011;641;48.492;9.184;2022-11-20T06:57:56;10.50;;;1.70;;
1296;SDS011;641;48.492;9.184;2022-11-20T07:00:21;6.50;;;1.70;;
1296;SDS011;641;48.492;9.184;2022-11-20T07:02:47;6.07;;;1.40;;
1296;SDS011;641;48.492;9.184;2022-11-20T07:05:12;7.33;;;1.50;;
1296;SDS011;641;48.492;9.184;2022-11-20T07:07:38;6.83;;;1.40;;
1296;SDS011;641;48.492;9.184;2022-11-20T07:10:04;5.87;;;1.27;;
1296;SDS011;641;48.492;9.184;2022-11-20T07:12:30;5.80;;;1.30;;
1296;SDS011;641;48.492;9.184;2022-11-20T07:14:55;6.00;;;1.63;;
1296;SDS011;641;48.492;9.184;2022-11-20T07:17:21;7.30;;;1.70;;
1296;SDS011;641;48.492;9.184;2022-11-20T07:19:47;7.67;;;2.60;;
1296;SDS011;641;48.492;9.184;2022-11-20T07:22:12;6.80;;;1.73;;
1296;SDS011;641;48.492;9.184;2022-11-20T07:24:38;6.00;;;1.17;;
1296;SDS011;641;48.492;9.184;2022-11-20T07:27:04;6.30;;;1.50;;
1296;SDS011;641;48.492;9.184;2022-11-20T07:29:30;6.83;;;1.60;;
1296;SDS011;641;48.492;9.184;2022-11-20T07:31:56;5.40;;;0.97;;
1296;SDS011;641;48.492;9.184;2022-11-20T07:34:22;7.20;;;1.00;;
1296;SDS011;641;48.492;9.184;2022-11-20T07:36:48;6.70;;;1.67;;
1296;SDS011;641;48.492;9.184;2022-11-20T07:39:13;6.67;;;1.20;;
1296;SDS011;641;48.492;9.184;2022-11-20T07:41:39;7.90;;;1.10;;
1296;SDS011;641;48.492;9.184;2022-11-20T07:44:04;6.40;;;1.27;;
1296;SDS011;641;48.492;9.184;2022-11-20T07:46:30;5.30;;;0.90;;
1296;SDS011;641;48.492;9.184;2022-11-20T07:48:56;5.70;;;1.00;;
1296;SDS011;641;48.492;9.184;2022-11-20T07:51:21;6.70;;;1.30;;
1296;SDS011;641;48.492;9.184;2022-11-20T07:53:47;5.40;;;1.10;;
1296;SDS011;641;48.492;9.184;2022-11-20T07:56:15;6.00;;;1.20;;
1296;SDS011;641;48.492;9.184;2022-11-20T07:58:40;5.93;;;1.10;;
1296;SDS011;641;48.492;9.184;2022-11-20T08:01:06;5.37;;;0.90;;
1296;SDS011;641;48.492;9.184;2022-11-20T08:03:32;6.00;;;1.00;;
1296;SDS011;641;48.492;9.184;2022-11-20T08:05:59;5.90;;;1.20;;
1296;SDS011;641;48.492;9.184;2022-11-20T08:08:27;5.60;;;0.90;;
1296;SDS011;641;48.492;9.184;2022-11-20T08:10:53;6.30;;;1.40;;
1296;SDS011;641;48.492;9.184;2022-11-20T08:13:41;5.90;;;1.40;;
1296;SDS011;641;48.492;9.184;2022-11-20T08:16:25;6.00;;;1.20;;
1296;SDS011;641;48.492;9.184;2022-11-20T08:18:50;5.87;;;1.00;;
1296;SDS011;641;48.492;9.184;2022-11-20T08:21:16;6.17;;;1.60;;
1296;SDS011;641;48.492;9.184;2022-11-20T08:23:43;6.80;;;1.40;;
1296;SDS011;641;48.492;9.184;2022-11-20T08:26:09;6.33;;;0.97;;
1296;SDS011;641;48.492;9.184;2022-11-20T08:28:34;5.73;;;1.30;;
1296;SDS011;641;48.492;9.184;2022-11-20T08:31:00;6.40;;;0.97;;
1296;SDS011;641;48.492;9.184;2022-11-20T08:33:27;5.93;;;1.00;;
1296;SDS011;641;48.492;9.184;2022-11-20T08:35:53;8.03;;;1.13;;
1296;SDS011;641;48.492;9.184;2022-11-20T08:38:18;5.60;;;1.00;;
1296;SDS011;641;48.492;9.184;2022-11-20T08:40:44;8.03;;;1.40;;
1296;SDS011;641;48.492;9.184;2022-11-20T08:43:32;6.23;;;1.23;;
1296;SDS011;641;48.492;9.184;2022-11-20T08:45:58;6.50;;;1.13;;
1296;SDS011;641;48.492;9.184;2022-11-20T08:48:24;5.60;;;0.93;;
1296;SDS011;641;48.492;9.184;2022-11-20T08:50:49;6.60;;;1.43;;
1296;SDS011;641;48.492;9.184;2022-11-20T08:53:15;5.90;;;1.00;;
1296;SDS011;641;48.492;9.184;2022-11-20T08:55:40;6.10;;;1.20;;
1296;SDS011;641;48.492;9.184;2022-11-20T08:58:06;5.40;;;1.00;;
1296;SDS011;641;48.492;9.184;2022-11-20T09:00:32;6.73;;;1.27;;
1296;SDS011;641;48.492;9.184;2022-11-20T09:02:59;6.73;;;1.70;;
1296;SDS011;641;48.492;9.184;2022-11-20T09:05:26;8.13;;;1.57;;
1296;SDS011;641;48.492;9.184;2022-11-20T09:07:52;6.93;;;1.50;;
1296;SDS011;641;48.492;9.184;2022-11-20T09:10:24;5.93;;;1.20;;
1296;SDS011;641;48.492;9.184;2022-11-20T09:12:51;6.00;;;1.37;;
1296;SDS011;641;48.492;9.184;2022-11-20T09:15:17;5.47;;;0.90;;
1296;SDS011;641;48.492;9.184;2022-11-20T09:18:06;5.30;;;0.80;;
1296;SDS011;641;48.492;9.184;2022-11-20T09:20:57;5.83;;;1.17;;
1296;SDS011;641;48.492;9.184;2022-11-20T09:23:42;5.93;;;1.10;;
1296;SDS011;641;48.492;9.184;2022-11-20T09:26:09;5.70;;;1.30;;
1296;SDS011;641;48.492;9.184;2022-11-20T09:28:37;6.10;;;1.13;;
1296;SDS011;641;48.492;9.184;2022-11-20T09:31:09;5.57;;;1.10;;
1296;SDS011;641;48.492;9.184;2022-11-20T09:33:58;5.63;;;1.10;;
1296;SDS011;641;48.492;9.184;2022-11-20T09:36:24;6.43;;;1.00;;
1296;SDS011;641;48.492;9.184;2022-11-20T09:38:50;5.90;;;0.97;;
1296;SDS011;641;48.492;9.184;2022-11-20T09:44:18;9.20;;;1.20;;
1296;SDS011;641;48.492;9.184;2022-11-20T09:47:02;5.80;;;1.00;;
1296;SDS011;641;48.492;9.184;2022-11-20T09:59:59;6.53;;;1.27;;
1296;SDS011;641;48.492;9.184;2022-11-20T10:02:28;5.93;;;1.40;;
1296;SDS011;641;48.492;9.184;2022-11-20T10:05:09;5.97;;;1.33;;
1296;SDS011;641;48.492;9.184;2022-11-20T10:10:46;5.60;;;1.23;;
1296;SDS011;641;48.492;9.184;2022-11-20T10:13:39;6.10;;;1.60;;
1296;SDS011;641;48.492;9.184;2022-11-20T10:25:22;6.23;;;1.40;;
1296;SDS011;641;48.492;9.184;2022-11-20T10:33:21;6.10;;;1.20;;
1296;SDS011;641;48.492;9.184;2022-11-20T10:38:23;5.90;;;1.50;;
1296;SDS011;641;48.492;9.184;2022-11-20T10:40:55;7.67;;;2.10;;
1296;SDS011;641;48.492;9.184;2022-11-20T10:43:50;6.23;;;1.43;;
1296;SDS011;641;48.492;9.184;2022-11-20T10:46:25;7.00;;;1.97;;
1296;SDS011;641;48.492;9.184;2022-11-20T10:48:56;7.47;;;1.87;;
1296;SDS011;641;48.492;9.184;2022-11-20T10:54:32;5.77;;;1.27;;
1296;SDS011;641;48.492;9.184;2022-11-20T10:57:11;6.27;;;1.47;;
1296;SDS011;641;48.492;9.184;2022-11-20T10:59:51;6.57;;;1.77;;
1296;SDS011;641;48.492;9.184;2022-11-20T11:02:29;5.97;;;1.40;;
1296;SDS011;641;48.492;9.184;2022-11-20T11:07:51;5.93;;;1.30;;
1296;SDS011;641;48.492;9.184;2022-11-20T11:54:26;5.67;;;1.07;;
1296;SDS011;641;48.492;9.184;2022-11-20T11:57:00;6.10;;;0.90;;
1296;SDS011;641;48.492;9.184;2022-11-20T11:59:54;5.70;;;1.00;;
1296;SDS011;641;48.492;9.184;2022-11-20T12:02:34;5.17;;;0.73;;
1296;SDS011;641;48.492;9.184;2022-11-20T12:05:44;5.53;;;0.90;;
1296;SDS011;641;48.492;9.184;2022-11-20T12:08:00;5.80;;;1.00;;
1296;SDS011;641;48.492;9.184;2022-11-20T12:10:41;6.87;;;1.57;;
1296;SDS011;641;48.492;9.184;2022-11-20T12:15:59;7.70;;;1.30;;
1296;SDS011;641;48.492;9.184;2022-11-20T12:18:26;7.50;;;1.00;;
1296;SDS011;641;48.492;9.184;2022-11-20T12:23:42;7.97;;;1.23;;
1296;SDS011;641;48.492;9.184;2022-11-20T12:26:35;5.60;;;1.07;;
1296;SDS011;641;48.492;9.184;2022-11-20T12:29:35;8.10;;;1.30;;
1296;SDS011;641;48.492;9.184;2022-11-20T12:34:54;6.10;;;1.50;;
1296;SDS011;641;48.492;9.184;2022-11-20T12:38:03;7.27;;;1.20;;
1296;SDS011;641;48.492;9.184;2022-11-20T12:43:29;6.70;;;1.63;;
1296;SDS011;641;48.492;9.184;2022-11-20T12:51:58;6.17;;;1.30;;
1296;SDS011;641;48.492;9.184;2022-11-20T12:57:29;6.13;;;0.90;;
1296;SDS011;641;48.492;9.184;2022-11-20T13:00:19;6.27;;;1.07;;
1296;SDS011;641;48.492;9.184;2022-11-20T13:02:55;6.57;;;0.90;;
1296;SDS011;641;48.492;9.184;2022-11-20T13:08:24;7.10;;;1.00;;
1296;SDS011;641;48.492;9.184;2022-11-20T13:16:25;6.33;;;1.03;;
1296;SDS011;641;48.492;9.184;2022-11-20T13:19:12;7.23;;;1.57;;
1296;SDS011;641;48.492;9.184;2022-11-20T13:21:48;5.50;;;0.90;;
1296;SDS011;641;48.492;9.184;2022-11-20T13:26:43;5.83;;;1.10;;
1296;SDS011;641;48.492;9.184;2022-11-20T13:29:11;6.33;;;1.10;;
1296;SDS011;641;48.492;9.184;2022-11-20T13:31:44;5.67;;;1.00;;
1296;SDS011;641;48.492;9.184;2022-11-20T13:34:22;15.70;;;5.60;;
1296;SDS011;641;48.492;9.184;2022-11-20T13:36:51;5.73;;;0.80;;
1296;SDS011;641;48.492;9.184;2022-11-20T13:39:28;5.73;;;1.50;;
1296;SDS011;641;48.492;9.184;2022-11-20T13:42:00;6.90;;;1.37;;
1296;SDS011;641;48.492;9.184;2022-11-20T13:44:46;6.17;;;1.00;;
1296;SDS011;641;48.492;9.184;2022-11-20T15:56:13;14.90;;;1.60;;
1296;SDS011;641;48.492;9.184;2022-11-20T15:58:40;6.43;;;1.40;;
1296;SDS011;641;48.492;9.184;2022-11-20T16:01:09;6.03;;;1.20;;
1296;SDS011;641;48.492;9.184;2022-11-20T16:03:40;6.73;;;1.80;;
1296;SDS011;641;48.492;9.184;2022-11-20T16:06:06;6.20;;;1.30;;
